ADDS METAR Data

Data at: 0528 UTC 20 Sep 2017

METAR for:KLAX (Los Angeles Intl, CA, US)
Text:KLAX 200453Z 27007KT 10SM FEW050 19/17 A2988 RMK AO2 SLP117 T01940167
Temperature: 19.4°C ( 67°F)
Dewpoint: 16.7°C ( 62°F) [RH = 84%]
Pressure (altimeter):29.88 inches Hg (1011.9 mb) [Sea level pressure: 1011.7 mb]
Winds:from the W (270 degrees) at 8 MPH (7 knots; 3.6 m/s)
Visibility:10 or more sm (16+ km)
Ceiling:at least 12,000 feet AGL
Clouds: few clouds at 5000 feet AGL